Terminal Aerodrome Forecast
Issued by NWS

Home | Current Version | Previous Version | Text Only | Print | Product List | Glossary On
Versions: 1 2 3 4 5 6 7 8 9 10 11 12
019
FTUS41 KAKQ 191120
TAFPHF
TAF
KPHF 191120Z 1912/2012 24006KT P6SM SCT120 BKN250
     FM191800 34005KT P6SM SCT250=

USA.gov is the U.S. government's official web portal to all federal, state and local government web resources and services.